createdAt,value
2023-08-11T00:16:22.782Z,15.2
2023-08-11T00:17:00.867Z,15.2
2023-08-11T00:17:36.857Z,15.4
2023-08-11T00:18:12.890Z,15.5
2023-08-11T00:18:48.936Z,15.7
2023-08-11T00:19:25.139Z,15.9
2023-08-11T00:20:01.166Z,16.1
2023-08-11T00:45:38.406Z,15
2023-08-11T01:12:59.184Z,14.7
2023-08-11T01:40:41.422Z,14.3
2023-08-11T02:08:03.331Z,14.1
2023-08-11T02:08:39.640Z,14.1
2023-08-11T02:09:18.602Z,14.3
2023-08-11T02:09:54.654Z,14.5
2023-08-11T02:10:30.570Z,14.7
2023-08-11T02:11:06.552Z,14.9
2023-08-11T02:11:42.505Z,15.1
2023-08-11T02:12:18.503Z,15.2
2023-08-11T02:12:54.535Z,15.4
2023-08-11T02:13:30.517Z,15.5
2023-08-11T02:14:06.476Z,15.6
2023-08-11T02:14:42.490Z,15.7
2023-08-11T02:15:18.532Z,15.8
2023-08-11T02:15:54.639Z,15.9
2023-08-11T02:41:22.962Z,14.2
2023-08-11T02:42:35.053Z,14.3
2023-08-11T02:43:11.211Z,14.5
2023-08-11T02:43:47.131Z,14.7
2023-08-11T02:44:23.270Z,14.9
2023-08-11T02:44:59.272Z,15
2023-08-11T02:45:35.483Z,15.2
2023-08-11T02:46:11.520Z,15.3
2023-08-11T02:46:47.718Z,15.4
2023-08-11T03:12:18.166Z,14.1
2023-08-11T03:39:59.792Z,14
2023-08-11T03:40:36.037Z,14
2023-08-11T04:07:23.269Z,13.9
2023-08-11T04:07:59.603Z,13.9
2023-08-11T04:34:47.573Z,13.9
2023-08-11T04:35:23.886Z,13.9
2023-08-11T04:36:00.040Z,14
2023-08-11T05:02:16.478Z,14.1
2023-08-11T05:03:28.965Z,14.2
2023-08-11T05:04:05.047Z,14.4
2023-08-11T05:04:41.048Z,14.7
2023-08-11T05:05:17.220Z,14.9
2023-08-11T05:05:53.174Z,15.1
2023-08-11T05:31:35.175Z,14.7
2023-08-11T05:32:11.386Z,14.7
2023-08-11T05:32:47.334Z,14.9
2023-08-11T05:33:23.336Z,15.1
2023-08-11T05:33:59.432Z,15.3
2023-08-11T05:34:35.665Z,15.5
2023-08-11T05:35:11.757Z,15.7
2023-08-11T05:35:47.888Z,15.9
2023-08-11T06:01:27.027Z,15.6
2023-08-11T06:29:13.891Z,16.5
2023-08-11T06:29:50.125Z,16.6
2023-08-11T06:30:27.356Z,16.7
2023-08-11T06:31:03.487Z,16.9
2023-08-11T06:31:39.550Z,17.2
2023-08-11T06:32:15.709Z,17.4
2023-08-11T06:32:51.820Z,17.6
2023-08-11T06:33:28.145Z,17.8
2023-08-11T06:59:11.406Z,17.9
2023-08-11T06:59:47.776Z,18
2023-08-11T07:26:43.140Z,19.6
2023-08-11T07:27:19.812Z,19.6
2023-08-11T07:27:55.600Z,19.8
2023-08-11T07:29:07.705Z,20.3
2023-08-11T07:29:43.881Z,20.5
2023-08-11T07:30:20.217Z,20.7
2023-08-11T07:30:56.407Z,20.9
2023-08-11T07:31:32.510Z,21.1
2023-08-11T07:32:08.661Z,21.2
2023-08-11T07:32:44.891Z,21.4
2023-08-11T07:33:21.061Z,21.5
2023-08-11T07:59:02.480Z,21.8
2023-08-11T08:00:15.050Z,22
2023-08-11T08:00:51.138Z,22.3
2023-08-11T08:01:27.449Z,22.5
2023-08-11T08:02:03.482Z,22.7
2023-08-11T08:02:39.613Z,22.9
2023-08-11T08:03:18.239Z,23.1
2023-08-11T08:03:51.823Z,23.3
2023-08-11T08:04:28.011Z,23.5
2023-08-11T08:05:12.161Z,23.6
2023-08-11T08:30:45.038Z,23.6
2023-08-11T08:58:37.343Z,24.7
2023-08-11T08:59:50.026Z,24.9
2023-08-11T09:00:26.133Z,25.1
2023-08-11T09:01:02.311Z,25.3
2023-08-11T09:01:38.655Z,25.5
2023-08-11T09:02:15.436Z,25.8
2023-08-11T09:28:01.291Z,25.8
2023-08-11T09:28:37.892Z,25.8
2023-08-11T09:29:14.072Z,26
2023-08-11T09:55:37.894Z,26.6
2023-08-11T09:56:14.387Z,26.7
2023-08-11T09:56:50.593Z,26.8
2023-08-11T09:57:26.705Z,27
2023-08-11T09:58:02.865Z,27.2
2023-08-11T09:58:39.251Z,27.4
2023-08-11T09:59:15.466Z,27.7
2023-08-11T10:25:01.432Z,27.2
2023-08-11T10:26:13.840Z,27.4
2023-08-11T10:26:49.970Z,27.6
2023-08-11T10:27:26.282Z,27.8
2023-08-11T10:28:02.617Z,28.1
2023-08-11T10:28:38.890Z,28.2
2023-08-11T10:54:25.478Z,28.1
2023-08-11T10:55:37.901Z,28.3
2023-08-11T10:56:13.885Z,28.5
2023-08-11T11:22:24.344Z,29
2023-08-11T11:23:00.685Z,29
2023-08-11T11:23:36.872Z,29.1
2023-08-11T11:24:12.929Z,29.3
2023-08-11T11:24:49.190Z,29.5
2023-08-11T11:25:25.213Z,29.7
2023-08-11T11:26:01.391Z,29.9
2023-08-11T11:26:37.473Z,30.1
2023-08-11T11:27:13.533Z,30.3
2023-08-11T11:27:49.543Z,30.4
2023-08-11T11:28:25.586Z,30.5
2023-08-11T11:29:01.693Z,30.6
2023-08-11T11:29:37.936Z,30.7
2023-08-11T11:55:21.030Z,30.5
2023-08-11T11:56:33.811Z,30.7
2023-08-11T11:57:11.605Z,30.9
2023-08-11T11:57:46.336Z,31.1
2023-08-11T11:58:22.418Z,31.3
2023-08-11T12:24:16.772Z,31.7
2023-08-11T12:24:53.167Z,31.8
2023-08-11T12:25:29.350Z,31.9
2023-08-11T12:51:53.282Z,32.1
2023-08-11T12:52:29.630Z,32.1
2023-08-11T12:53:05.836Z,32.3
2023-08-11T13:19:27.530Z,32.1
2023-08-11T13:20:03.961Z,32.2
2023-08-11T13:20:40.141Z,32.3
2023-08-11T13:21:17.503Z,32.5
2023-08-11T13:21:53.984Z,32.6
2023-08-11T13:47:54.697Z,32.2
2023-08-11T13:48:31.048Z,32.2
2023-08-11T13:49:07.036Z,32.4
2023-08-11T13:49:43.151Z,32.7
2023-08-11T13:50:19.180Z,33
2023-08-11T13:50:55.485Z,33.4
2023-08-11T13:51:31.559Z,33.8
2023-08-11T13:52:07.940Z,34.3
2023-08-11T13:52:43.719Z,34.7
2023-08-11T13:53:19.796Z,35.1
2023-08-11T13:53:55.976Z,35.4
2023-08-11T13:54:32.169Z,35.7
2023-08-11T13:55:10.298Z,36
2023-08-11T13:55:44.371Z,36.3
2023-08-11T13:56:20.640Z,36.5
2023-08-11T13:56:56.792Z,36.6
2023-08-11T14:22:35.555Z,34.8
2023-08-11T14:50:17.328Z,33.3
2023-08-11T14:50:53.870Z,33
2023-08-11T14:51:30.036Z,32.9
2023-08-11T15:17:47.853Z,35.6
2023-08-11T15:18:24.322Z,35.7
2023-08-11T15:19:01.350Z,35.8
2023-08-11T15:19:37.534Z,36
2023-08-11T15:20:14.236Z,36.2
2023-08-11T15:20:51.866Z,36.4
2023-08-11T15:21:28.187Z,36.5
2023-08-11T15:46:55.342Z,30.5
2023-08-11T15:48:07.733Z,30.4
2023-08-11T15:48:43.623Z,30.5
2023-08-11T15:49:19.868Z,30.7
2023-08-11T15:49:56.122Z,30.8
2023-08-11T15:50:32.151Z,30.9
2023-08-11T15:51:08.074Z,31
2023-08-11T15:51:44.146Z,31
2023-08-11T15:52:56.391Z,31.1
2023-08-11T16:18:25.026Z,27.5
2023-08-11T16:19:01.429Z,27.4
2023-08-11T16:19:37.614Z,27.5
2023-08-11T16:20:13.723Z,27.6
2023-08-11T16:20:49.756Z,27.8
2023-08-11T16:46:37.222Z,26.1
2023-08-11T16:47:13.627Z,26.1
2023-08-11T17:13:53.914Z,23.9
2023-08-11T17:14:30.170Z,23.9
2023-08-11T17:15:06.408Z,24
2023-08-11T17:41:20.377Z,23.5
2023-08-11T17:41:56.616Z,23.5
2023-08-11T17:42:32.697Z,23.6
2023-08-11T18:08:50.520Z,23.1
2023-08-11T18:09:26.926Z,23.1
2023-08-11T18:10:03.397Z,23.2
2023-08-11T18:10:39.631Z,23.4
2023-08-11T18:11:15.801Z,23.5
2023-08-11T18:11:51.918Z,23.7
2023-08-11T18:12:27.873Z,23.9
2023-08-11T18:13:03.907Z,24
2023-08-11T18:13:41.650Z,24.1
2023-08-11T18:39:15.812Z,22.5
2023-08-11T18:39:52.198Z,22.5
2023-08-11T19:06:37.972Z,21.9
2023-08-11T19:07:17.886Z,21.9
2023-08-11T19:07:54.035Z,22
2023-08-11T19:34:08.910Z,21.6
2023-08-11T19:35:22.434Z,21.8
2023-08-11T19:35:58.708Z,22
2023-08-11T19:36:36.685Z,22.2
2023-08-11T19:37:12.565Z,22.4
2023-08-11T19:37:48.876Z,22.5
2023-08-11T19:38:25.127Z,22.7
2023-08-11T19:39:01.477Z,22.8
2023-08-11T20:04:36.480Z,21.5
2023-08-11T20:05:12.733Z,21.5
2023-08-11T20:05:48.719Z,21.6
2023-08-11T20:06:24.728Z,21.8
2023-08-11T20:32:24.841Z,20.9
2023-08-11T20:33:01.330Z,20.9
2023-08-11T20:33:37.497Z,21
2023-08-11T20:34:13.819Z,21.1
2023-08-11T20:34:49.862Z,21.3
2023-08-11T20:35:26.028Z,21.5
2023-08-11T20:36:02.054Z,21.7
2023-08-11T20:36:38.080Z,21.8
2023-08-11T20:37:14.481Z,21.9
2023-08-11T20:37:50.366Z,22.1
2023-08-11T20:38:26.509Z,22.1
2023-08-11T20:39:02.732Z,22.2
2023-08-11T20:39:38.938Z,22.3
2023-08-11T21:05:10.055Z,20.5
2023-08-11T21:32:53.118Z,20.2
2023-08-11T22:00:38.347Z,20.1
2023-08-11T22:01:14.722Z,20.1
2023-08-11T22:28:03.495Z,20
2023-08-11T22:28:39.983Z,20
2023-08-11T22:55:29.008Z,19.8
2023-08-11T22:56:41.333Z,19.9
2023-08-11T22:57:17.609Z,20.1
2023-08-11T22:57:53.566Z,20.2
2023-08-11T22:58:29.629Z,20.4
2023-08-11T22:59:05.763Z,20.6
2023-08-11T22:59:41.851Z,20.7
2023-08-11T23:00:17.951Z,20.9
2023-08-11T23:00:54.043Z,21
2023-08-11T23:01:29.981Z,21.1
2023-08-11T23:02:05.980Z,21.2
2023-08-11T23:02:42.084Z,21.2
2023-08-11T23:03:18.172Z,21.3
2023-08-11T23:28:55.969Z,19.8
2023-08-11T23:29:32.279Z,19.8
2023-08-11T23:30:08.434Z,19.9
2023-08-11T23:56:53.409Z,19.7
2023-08-11T23:57:29.850Z,19.7
